createdAt,value
2023-01-20T00:00:36.995Z,31.80
2023-01-20T00:03:39.782Z,32.47
2023-01-20T00:06:41.820Z,25.73
2023-01-20T00:09:43.877Z,29.90
2023-01-20T00:12:45.987Z,26.73
2023-01-20T00:15:48.658Z,26.97
2023-01-20T00:18:51.010Z,20.40
2023-01-20T00:21:53.492Z,27.83
2023-01-20T00:24:55.450Z,20.45
2023-01-20T00:27:57.499Z,26.02
2023-01-20T00:30:59.860Z,26.15
2023-01-20T00:34:02.266Z,24.55
2023-01-20T00:37:04.499Z,26.17
2023-01-20T00:40:06.987Z,24.65
2023-01-20T00:43:09.101Z,21.73
2023-01-20T00:46:11.648Z,24.63
2023-01-20T00:49:13.832Z,24.40
2023-01-20T00:52:15.925Z,24.95
2023-01-20T00:55:17.967Z,22.30
2023-01-20T00:58:20.158Z,26.55
2023-01-20T01:01:22.873Z,21.33
2023-01-20T01:04:24.960Z,31.13
2023-01-20T01:07:27.004Z,25.77
2023-01-20T01:10:28.996Z,25.13
2023-01-20T01:13:31.613Z,28.23
2023-01-20T01:16:33.736Z,29.37
2023-01-20T01:19:35.810Z,27.88
2023-01-20T01:22:37.869Z,27.00
2023-01-20T01:25:39.996Z,18.65
2023-01-20T01:28:42.019Z,19.70
2023-01-20T01:31:44.170Z,28.48
2023-01-20T01:34:46.305Z,24.27
2023-01-20T01:37:48.265Z,26.23
2023-01-20T01:40:51.085Z,30.70
2023-01-20T01:44:00.698Z,29.20
2023-01-20T01:47:02.966Z,29.80
2023-01-20T01:50:05.673Z,30.17
2023-01-20T01:53:08.253Z,28.15
2023-01-20T01:56:11.331Z,30.30
2023-01-20T01:59:14.248Z,29.30
2023-01-20T02:02:17.238Z,29.10
2023-01-20T02:05:25.737Z,30.45
2023-01-20T02:08:27.871Z,26.87
2023-01-20T02:11:31.301Z,29.48
2023-01-20T02:14:38.591Z,27.35
2023-01-20T02:17:46.129Z,29.20
2023-01-20T02:21:17.538Z,26.98
2023-01-20T02:24:38.351Z,26.67
2023-01-20T02:27:58.657Z,29.25
2023-01-20T02:31:03.539Z,28.63
2023-01-20T02:34:16.479Z,25.52
2023-01-20T02:37:19.937Z,22.08
2023-01-20T02:40:22.010Z,36.30
2023-01-20T02:43:29.958Z,30.02
2023-01-20T02:46:33.839Z,31.27
2023-01-20T02:49:50.877Z,32.57
2023-01-20T02:52:54.713Z,32.05
2023-01-20T02:55:56.997Z,30.83
2023-01-20T02:59:01.743Z,29.35
2023-01-20T03:02:06.622Z,29.25
2023-01-20T03:05:11.789Z,34.53
2023-01-20T03:08:14.647Z,31.52
2023-01-20T03:11:16.997Z,32.27
2023-01-20T03:14:19.176Z,35.65
2023-01-20T03:17:22.072Z,31.92
2023-01-20T03:20:24.412Z,32.83
2023-01-20T03:23:31.632Z,33.00
2023-01-20T03:26:33.824Z,31.30
2023-01-20T03:29:35.844Z,33.03
2023-01-20T03:32:37.956Z,33.50
2023-01-20T03:35:40.738Z,34.58
2023-01-20T03:38:43.815Z,39.65
2023-01-20T03:41:48.666Z,33.47
2023-01-20T03:45:00.467Z,32.05
2023-01-20T03:48:07.564Z,38.83
2023-01-20T03:51:31.350Z,40.67
2023-01-20T03:54:45.674Z,33.97
2023-01-20T03:58:08.547Z,34.80
2023-01-20T04:01:18.568Z,32.30
2023-01-20T04:04:21.394Z,31.77
2023-01-20T04:07:25.084Z,36.72
2023-01-20T04:10:27.752Z,31.80
2023-01-20T04:13:29.900Z,34.90
2023-01-20T04:16:31.900Z,37.28
2023-01-20T04:19:33.936Z,38.17
2023-01-20T04:22:42.725Z,31.97
2023-01-20T04:25:44.876Z,32.33
2023-01-20T04:28:46.843Z,29.02
2023-01-20T04:31:48.873Z,33.00
2023-01-20T04:34:51.982Z,29.58
2023-01-20T04:37:54.214Z,31.70
2023-01-20T04:40:56.205Z,26.35
2023-01-20T04:43:58.201Z,28.30
2023-01-20T04:47:00.232Z,29.95
2023-01-20T04:50:02.221Z,30.25
2023-01-20T04:53:04.214Z,29.37
2023-01-20T04:56:10.377Z,30.13
2023-01-20T04:59:12.741Z,29.90
2023-01-20T05:02:14.810Z,28.83
2023-01-20T05:05:17.206Z,26.88
2023-01-20T05:08:19.500Z,22.00
2023-01-20T05:11:21.454Z,27.58
2023-01-20T05:14:23.479Z,26.70
2023-01-20T05:17:25.660Z,21.05
2023-01-20T05:20:27.737Z,26.75
2023-01-20T05:23:29.865Z,29.10
2023-01-20T05:26:32.927Z,23.92
2023-01-20T05:29:35.174Z,23.40
2023-01-20T05:32:37.208Z,21.67
2023-01-20T05:35:39.238Z,24.92
2023-01-20T05:38:41.227Z,25.80
2023-01-20T05:41:44.499Z,23.42
2023-01-20T05:44:46.508Z,25.23
2023-01-20T05:47:48.552Z,25.15
2023-01-20T05:50:50.571Z,22.30
2023-01-20T05:53:52.645Z,29.27
2023-01-20T05:56:54.647Z,27.45
2023-01-20T05:59:56.938Z,28.17
2023-01-20T06:02:59.286Z,26.13
2023-01-20T06:06:01.731Z,33.30
2023-01-20T06:09:03.853Z,27.17
2023-01-20T06:12:06.191Z,31.02
2023-01-20T06:15:08.896Z,37.87
2023-01-20T06:18:12.964Z,35.15
2023-01-20T06:21:15.602Z,36.03
2023-01-20T06:24:17.919Z,33.03
2023-01-20T06:27:20.035Z,37.75
2023-01-20T06:30:22.510Z,39.88
2023-01-20T06:33:24.631Z,36.55
2023-01-20T06:36:26.674Z,41.88
2023-01-20T06:39:28.796Z,38.85
2023-01-20T06:42:31.581Z,44.53
2023-01-20T06:45:34.395Z,37.40
2023-01-20T06:48:37.334Z,44.47
2023-01-20T06:51:39.510Z,41.22
2023-01-20T06:54:41.592Z,34.63
2023-01-20T06:57:44.230Z,41.13
2023-01-20T07:00:46.644Z,39.55
2023-01-20T07:03:48.873Z,41.17
2023-01-20T07:06:51.243Z,42.58
2023-01-20T07:09:56.198Z,38.97
2023-01-20T07:12:58.505Z,32.38
2023-01-20T07:16:00.732Z,32.57
2023-01-20T07:19:03.293Z,41.35
2023-01-20T07:22:05.382Z,41.20
2023-01-20T07:25:07.647Z,48.17
2023-01-20T07:28:09.790Z,44.17
2023-01-20T07:31:16.143Z,41.28
2023-01-20T07:34:18.351Z,47.47
2023-01-20T07:37:20.453Z,46.65
2023-01-20T07:40:22.712Z,49.38
2023-01-20T07:43:24.835Z,39.97
2023-01-20T07:46:27.104Z,53.23
2023-01-20T07:49:29.881Z,51.72
2023-01-20T07:52:31.974Z,52.95
2023-01-20T07:55:34.292Z,45.77
2023-01-20T07:58:36.867Z,40.35
2023-01-20T08:01:39.099Z,56.70
2023-01-20T08:04:41.964Z,52.75
2023-01-20T08:07:44.675Z,52.65
2023-01-20T08:10:54.544Z,35.67
2023-01-20T08:13:57.175Z,51.33
2023-01-20T08:17:00.355Z,45.60
2023-01-20T08:20:03.089Z,47.97
2023-01-20T08:23:05.200Z,44.85
2023-01-20T08:26:07.572Z,38.10
2023-01-20T08:29:10.283Z,39.92
2023-01-20T08:32:12.359Z,44.47
2023-01-20T08:35:15.061Z,42.22
2023-01-20T08:38:17.446Z,20.98
2023-01-20T08:41:21.667Z,23.90
2023-01-20T08:44:23.853Z,22.42
2023-01-20T08:47:26.308Z,28.47
2023-01-20T08:50:28.693Z,22.58
2023-01-20T08:53:31.075Z,20.58
2023-01-20T08:56:35.715Z,26.03
2023-01-20T08:59:38.633Z,16.70
2023-01-20T09:02:41.201Z,17.27
2023-01-20T09:05:44.099Z,17.40
2023-01-20T09:08:46.677Z,16.35
2023-01-20T09:11:52.173Z,12.48
2023-01-20T09:14:54.365Z,22.77
2023-01-20T09:17:57.081Z,16.30
2023-01-20T09:20:59.728Z,12.02
2023-01-20T09:24:01.842Z,14.88
2023-01-20T09:27:04.006Z,19.03
2023-01-20T09:30:06.489Z,20.10
2023-01-20T09:33:09.948Z,14.75
2023-01-20T09:36:12.737Z,19.77
2023-01-20T09:39:33.720Z,15.50
2023-01-20T09:43:13.103Z,19.08
2023-01-20T09:46:36.538Z,14.85
2023-01-20T09:50:03.707Z,21.67
2023-01-20T09:53:26.128Z,19.55
2023-01-20T09:56:31.414Z,23.70
2023-01-20T09:59:46.002Z,20.13
2023-01-20T10:02:51.293Z,17.13
2023-01-20T10:05:55.435Z,17.63
2023-01-20T10:09:06.040Z,18.63
2023-01-20T10:12:17.652Z,22.45
2023-01-20T10:15:27.119Z,19.70
2023-01-20T10:18:37.959Z,18.25
2023-01-20T10:21:52.257Z,17.90
2023-01-20T10:25:06.891Z,19.88
2023-01-20T10:28:11.588Z,16.95
2023-01-20T10:31:15.790Z,19.73
2023-01-20T10:34:20.404Z,23.80
2023-01-20T10:37:23.867Z,19.40
2023-01-20T10:40:33.534Z,17.40
2023-01-20T10:43:37.181Z,16.30
2023-01-20T10:46:42.434Z,15.85
2023-01-20T10:49:53.664Z,10.40
2023-01-20T10:52:55.780Z,13.63
2023-01-20T10:56:16.235Z,11.52
2023-01-20T10:59:22.437Z,12.35
2023-01-20T11:02:28.864Z,11.40
2023-01-20T11:05:32.390Z,15.95
2023-01-20T11:08:35.103Z,10.98
2023-01-20T11:11:37.278Z,13.35
2023-01-20T11:14:39.652Z,12.27
2023-01-20T11:17:42.092Z,8.88
2023-01-20T11:20:56.781Z,11.13
2023-01-20T11:23:59.703Z,12.37
2023-01-20T11:27:13.451Z,9.70
2023-01-20T11:30:30.314Z,11.75
2023-01-20T11:33:32.633Z,11.77
2023-01-20T11:36:34.834Z,16.77
2023-01-20T11:39:39.761Z,16.08
2023-01-20T11:42:43.603Z,13.35
2023-01-20T11:45:45.667Z,15.10
2023-01-20T11:48:48.042Z,16.38
2023-01-20T11:51:55.129Z,15.25
2023-01-20T11:55:09.593Z,15.07
2023-01-20T11:58:16.658Z,15.95
2023-01-20T12:01:25.662Z,12.95
2023-01-20T12:04:54.232Z,19.30
2023-01-20T12:07:56.620Z,12.90
2023-01-20T12:11:03.009Z,11.93
2023-01-20T12:14:20.161Z,16.95
2023-01-20T12:17:29.544Z,14.60
2023-01-20T12:20:53.582Z,15.35
2023-01-20T12:24:03.325Z,16.98
2023-01-20T12:27:05.896Z,18.97
2023-01-20T12:30:16.678Z,14.20
2023-01-20T12:33:25.029Z,14.15
2023-01-20T12:36:27.182Z,12.20
2023-01-20T12:39:37.745Z,17.08
2023-01-20T12:42:48.948Z,13.95
2023-01-20T12:45:54.147Z,16.23
2023-01-20T12:49:28.439Z,23.60
2023-01-20T12:52:31.137Z,14.95
2023-01-20T12:55:55.867Z,16.17
2023-01-20T12:59:02.936Z,15.77
2023-01-20T13:02:20.844Z,19.35
2023-01-20T13:05:39.084Z,15.68
2023-01-20T13:08:53.748Z,22.90
2023-01-20T13:12:16.284Z,18.65
2023-01-20T13:15:21.137Z,20.50
2023-01-20T13:18:25.997Z,14.05
2023-01-20T13:21:28.117Z,16.05
2023-01-20T13:24:30.310Z,15.38
2023-01-20T13:27:37.148Z,14.35
2023-01-20T13:30:43.623Z,19.40
2023-01-20T13:33:45.703Z,21.05
2023-01-20T13:37:03.143Z,16.20
2023-01-20T13:40:25.219Z,20.23
2023-01-20T13:43:34.002Z,25.73
2023-01-20T13:46:36.049Z,17.13
2023-01-20T13:49:44.008Z,13.27
2023-01-20T13:52:50.386Z,22.35
2023-01-20T13:55:54.035Z,20.17
2023-01-20T13:58:59.643Z,17.17
2023-01-20T14:02:21.080Z,15.73
2023-01-20T14:05:25.051Z,24.65
2023-01-20T14:08:28.877Z,22.83
2023-01-20T14:11:31.509Z,20.30
2023-01-20T14:14:33.560Z,25.33
2023-01-20T14:17:36.576Z,21.75
2023-01-20T14:20:38.725Z,24.33
2023-01-20T14:23:40.770Z,24.23
2023-01-20T14:26:42.813Z,26.05
2023-01-20T14:29:45.426Z,29.05
2023-01-20T14:32:47.590Z,24.47
2023-01-20T14:35:49.654Z,23.75
2023-01-20T14:38:58.263Z,17.25
2023-01-20T14:42:01.199Z,24.90
2023-01-20T14:45:03.351Z,26.35
2023-01-20T14:48:05.717Z,20.15
2023-01-20T14:51:08.085Z,37.28
2023-01-20T14:54:32.573Z,26.08
2023-01-20T14:57:40.841Z,30.42
2023-01-20T15:00:43.912Z,21.70
2023-01-20T15:03:45.948Z,33.37
2023-01-20T15:06:51.582Z,35.70
2023-01-20T15:10:01.754Z,37.58
2023-01-20T15:13:03.787Z,27.10
2023-01-20T15:16:17.590Z,43.05
2023-01-20T15:19:29.331Z,40.78
2023-01-20T15:22:31.658Z,47.45
2023-01-20T15:25:36.965Z,45.30
2023-01-20T15:28:42.971Z,40.45
2023-01-20T15:31:45.095Z,31.52
2023-01-20T15:34:47.367Z,32.37
2023-01-20T15:37:50.041Z,37.08
2023-01-20T15:40:52.038Z,31.10
2023-01-20T15:43:54.079Z,43.37
2023-01-20T15:46:57.624Z,37.40
2023-01-20T15:49:59.953Z,20.15
2023-01-20T15:53:03.500Z,35.75
2023-01-20T15:56:05.751Z,21.23
2023-01-20T15:59:14.848Z,34.03
2023-01-20T16:02:18.210Z,36.28
2023-01-20T16:05:20.469Z,15.03
2023-01-20T16:08:23.774Z,40.22
2023-01-20T16:11:26.048Z,26.00
2023-01-20T16:14:28.040Z,41.03
2023-01-20T16:17:30.840Z,45.33
2023-01-20T16:20:34.143Z,49.33
2023-01-20T16:23:36.248Z,37.67
2023-01-20T16:26:38.404Z,52.17
2023-01-20T16:29:40.413Z,40.90
2023-01-20T16:32:46.142Z,34.55
2023-01-20T16:35:49.672Z,41.63
2023-01-20T16:38:52.070Z,41.65
2023-01-20T16:41:54.118Z,41.60
2023-01-20T16:44:56.175Z,49.27
2023-01-20T16:47:58.336Z,43.08
2023-01-20T16:51:04.620Z,52.22
2023-01-20T16:54:06.612Z,53.30
2023-01-20T16:57:08.957Z,47.55
2023-01-20T17:00:11.330Z,30.08
2023-01-20T17:03:13.330Z,53.40
2023-01-20T17:06:18.020Z,34.50
2023-01-20T17:09:20.304Z,52.67
2023-01-20T17:12:22.385Z,55.17
2023-01-20T17:15:24.642Z,52.53
2023-01-20T17:18:26.706Z,56.60
2023-01-20T17:21:29.556Z,55.17
2023-01-20T17:24:33.074Z,60.65
2023-01-20T17:27:35.521Z,50.10
2023-01-20T17:30:38.189Z,63.50
2023-01-20T17:33:44.979Z,56.58
2023-01-20T17:36:48.131Z,39.63
2023-01-20T17:39:50.125Z,46.67
2023-01-20T17:42:52.726Z,58.05
2023-01-20T17:45:54.796Z,60.53
2023-01-20T17:48:57.710Z,40.85
2023-01-20T17:51:59.727Z,45.95
2023-01-20T17:55:03.632Z,60.10
2023-01-20T17:58:05.579Z,48.97
2023-01-20T18:01:11.425Z,58.58
2023-01-20T18:04:13.487Z,49.65
2023-01-20T18:07:15.550Z,59.77
2023-01-20T18:10:17.840Z,45.20
2023-01-20T18:13:19.999Z,45.08
2023-01-20T18:16:23.059Z,55.47
2023-01-20T18:19:25.182Z,46.83
2023-01-20T18:22:27.208Z,48.40
2023-01-20T18:25:29.991Z,46.13
2023-01-20T18:28:32.410Z,42.33
2023-01-20T18:31:34.828Z,56.08
2023-01-20T18:34:36.930Z,57.25
2023-01-20T18:37:38.937Z,55.30
2023-01-20T18:40:40.946Z,48.30
2023-01-20T18:43:43.039Z,52.05
2023-01-20T18:46:45.108Z,46.37
2023-01-20T18:49:47.172Z,46.78
2023-01-20T18:52:49.277Z,45.72
2023-01-20T18:55:51.344Z,51.92
2023-01-20T18:58:53.948Z,49.17
2023-01-20T19:01:58.517Z,42.00
2023-01-20T19:05:00.624Z,41.03
2023-01-20T19:08:02.688Z,50.07
2023-01-20T19:11:06.357Z,44.10
2023-01-20T19:14:11.127Z,50.65
2023-01-20T19:17:13.160Z,48.57
2023-01-20T19:20:15.625Z,43.15
2023-01-20T19:23:17.864Z,49.03
2023-01-20T19:26:20.503Z,37.58
2023-01-20T19:29:22.544Z,43.40
2023-01-20T19:32:24.584Z,45.92
2023-01-20T19:35:28.683Z,49.05
2023-01-20T19:38:30.752Z,45.43
2023-01-20T19:41:34.494Z,49.70
2023-01-20T19:44:36.585Z,47.08
2023-01-20T19:47:38.630Z,50.00
2023-01-20T19:50:41.917Z,62.17
2023-01-20T19:53:44.085Z,55.42
2023-01-20T19:56:46.122Z,52.42
2023-01-20T19:59:48.161Z,46.53
2023-01-20T20:02:52.797Z,47.65
2023-01-20T20:05:57.338Z,57.13
2023-01-20T20:09:00.721Z,39.17
2023-01-20T20:12:07.742Z,44.97
2023-01-20T20:15:09.921Z,51.17
2023-01-20T20:18:11.956Z,41.30
2023-01-20T20:21:13.983Z,38.30
2023-01-20T20:24:16.972Z,35.05
2023-01-20T20:27:18.946Z,45.67
2023-01-20T20:30:21.010Z,41.35
2023-01-20T20:33:25.785Z,46.20
2023-01-20T20:36:29.643Z,39.97
2023-01-20T20:39:31.723Z,33.27
2023-01-20T20:42:33.773Z,40.40
2023-01-20T20:45:35.814Z,37.30
2023-01-20T20:48:37.825Z,37.73
2023-01-20T20:51:39.836Z,43.50
2023-01-20T20:54:41.837Z,42.65
2023-01-20T20:57:43.923Z,41.75
2023-01-20T21:00:49.439Z,43.38
2023-01-20T21:03:51.460Z,45.42
2023-01-20T21:06:53.419Z,43.40
2023-01-20T21:09:55.386Z,37.67
2023-01-20T21:12:57.377Z,41.75
2023-01-20T21:16:06.224Z,44.88
2023-01-20T21:19:09.153Z,45.93
2023-01-20T21:22:11.662Z,45.10
2023-01-20T21:25:13.726Z,47.85
2023-01-20T21:28:15.718Z,43.15
2023-01-20T21:31:21.023Z,45.00
2023-01-20T21:34:23.147Z,45.75
2023-01-20T21:37:25.261Z,55.55
2023-01-20T21:40:27.290Z,42.37
2023-01-20T21:43:51.604Z,44.53
2023-01-20T21:46:53.872Z,45.47
2023-01-20T21:50:14.390Z,47.70
2023-01-20T21:53:16.629Z,49.42
2023-01-20T21:56:18.670Z,50.63
2023-01-20T21:59:20.747Z,43.50
2023-01-20T22:02:22.865Z,45.63
2023-01-20T22:05:24.902Z,41.03
2023-01-20T22:08:26.939Z,50.20
2023-01-20T22:11:28.923Z,20.10
2023-01-20T22:14:32.420Z,44.35
2023-01-20T22:17:34.523Z,40.63
2023-01-20T22:20:36.521Z,47.07
2023-01-20T22:23:38.491Z,42.92
2023-01-20T22:26:40.596Z,43.33
2023-01-20T22:29:42.592Z,42.50
2023-01-20T22:32:44.595Z,48.13
2023-01-20T22:35:46.620Z,42.30
2023-01-20T22:38:49.413Z,42.42
2023-01-20T22:41:51.421Z,46.03
2023-01-20T22:44:53.410Z,46.40
2023-01-20T22:47:55.799Z,46.08
2023-01-20T22:51:11.047Z,53.10
2023-01-20T22:54:13.136Z,45.40
2023-01-20T22:57:15.338Z,44.90
2023-01-20T23:00:18.102Z,45.75
2023-01-20T23:03:20.429Z,42.78
2023-01-20T23:06:23.200Z,42.38
2023-01-20T23:09:25.269Z,46.53
2023-01-20T23:12:28.195Z,43.30
2023-01-20T23:15:30.175Z,42.70
2023-01-20T23:18:32.212Z,49.00
2023-01-20T23:21:34.728Z,48.07
2023-01-20T23:24:36.791Z,44.63
2023-01-20T23:27:38.908Z,46.83
2023-01-20T23:30:41.513Z,43.33
2023-01-20T23:33:44.167Z,43.53
2023-01-20T23:36:46.434Z,46.60
2023-01-20T23:39:52.349Z,46.65
2023-01-20T23:42:54.399Z,47.97
2023-01-20T23:45:57.520Z,41.85
2023-01-20T23:48:59.618Z,45.92
2023-01-20T23:52:01.714Z,46.30
2023-01-20T23:55:03.863Z,24.55
2023-01-20T23:58:05.801Z,47.60
